createdAt,value
2022-10-21T00:00:14.142Z,24.60
2022-10-21T00:01:14.130Z,26.90
2022-10-21T00:02:14.128Z,29.10
2022-10-21T00:03:14.124Z,26.40
2022-10-21T00:04:14.099Z,26.00
2022-10-21T00:05:14.107Z,26.40
2022-10-21T00:06:14.089Z,24.20
2022-10-21T00:07:14.099Z,23.60
2022-10-21T00:08:14.080Z,24.00
2022-10-21T00:09:14.100Z,26.20
2022-10-21T00:10:14.044Z,23.50
2022-10-21T00:11:14.045Z,24.50
2022-10-21T00:12:14.051Z,25.00
2022-10-21T00:13:14.032Z,23.70
2022-10-21T00:14:14.010Z,27.30
2022-10-21T00:15:13.994Z,25.70
2022-10-21T00:16:13.985Z,24.80
2022-10-21T00:17:13.974Z,24.70
2022-10-21T00:18:13.974Z,25.00
2022-10-21T00:19:13.981Z,25.80
2022-10-21T00:20:14.016Z,22.70
2022-10-21T00:21:13.934Z,22.40
2022-10-21T00:22:13.911Z,24.40
2022-10-21T00:23:13.921Z,23.20
2022-10-21T00:24:13.937Z,21.70
2022-10-21T00:25:13.890Z,23.50
2022-10-21T00:26:13.879Z,23.30
2022-10-21T00:27:13.879Z,24.50
2022-10-21T00:28:13.863Z,27.10
2022-10-21T00:29:13.897Z,24.40
2022-10-21T00:30:13.881Z,22.30
2022-10-21T00:31:13.851Z,27.30
2022-10-21T00:32:13.823Z,27.50
2022-10-21T00:33:13.818Z,25.20
2022-10-21T00:34:13.798Z,26.60
2022-10-21T00:35:13.827Z,24.60
2022-10-21T00:36:13.847Z,25.40
2022-10-21T00:37:13.784Z,26.20
2022-10-21T00:38:13.802Z,26.10
2022-10-21T00:39:13.754Z,24.20
2022-10-21T00:40:13.755Z,25.40
2022-10-21T00:41:13.756Z,26.10
2022-10-21T00:42:13.739Z,25.40
2022-10-21T00:43:13.726Z,24.90
2022-10-21T00:44:13.695Z,26.00
2022-10-21T00:45:13.698Z,25.20
2022-10-21T00:46:13.705Z,26.10
2022-10-21T00:47:13.696Z,23.80
2022-10-21T00:48:13.660Z,25.80
2022-10-21T00:49:13.662Z,25.20
2022-10-21T00:50:13.651Z,25.00
2022-10-21T00:51:13.632Z,26.10
2022-10-21T00:52:13.649Z,24.80
2022-10-21T00:53:13.632Z,26.00
2022-10-21T00:54:13.607Z,26.70
2022-10-21T00:55:13.605Z,26.60
2022-10-21T00:56:16.507Z,26.10
2022-10-21T00:57:13.582Z,25.70
2022-10-21T00:58:13.590Z,25.50
2022-10-21T00:59:13.560Z,26.70
2022-10-21T01:00:13.555Z,25.90
2022-10-21T01:01:17.774Z,23.90
2022-10-21T01:02:14.538Z,23.70
2022-10-21T01:03:13.521Z,24.10
2022-10-21T01:04:13.519Z,23.40
2022-10-21T01:05:13.502Z,25.40
2022-10-21T01:06:13.497Z,24.00
2022-10-21T01:07:13.501Z,24.70
2022-10-21T01:08:13.477Z,27.60
2022-10-21T01:09:13.497Z,28.00
2022-10-21T01:10:13.476Z,31.50
2022-10-21T01:11:13.443Z,22.80
2022-10-21T01:12:13.431Z,28.00
2022-10-21T01:13:13.430Z,26.10
2022-10-21T01:14:13.414Z,23.50
2022-10-21T01:15:13.409Z,24.50
2022-10-21T01:16:13.416Z,24.30
2022-10-21T01:17:20.910Z,22.70
2022-10-21T01:18:15.378Z,22.80
2022-10-21T01:19:13.370Z,23.70
2022-10-21T01:20:13.373Z,23.30
2022-10-21T01:21:13.346Z,24.40
2022-10-21T01:22:13.359Z,25.20
2022-10-21T01:23:13.331Z,23.30
2022-10-21T01:24:13.320Z,23.40
2022-10-21T01:25:13.310Z,24.90
2022-10-21T01:26:13.306Z,23.60
2022-10-21T01:27:13.313Z,24.60
2022-10-21T01:28:13.275Z,23.10
2022-10-21T01:29:13.266Z,22.00
2022-10-21T01:30:13.295Z,21.00
2022-10-21T01:31:13.253Z,23.30
2022-10-21T01:32:13.244Z,23.80
2022-10-21T01:33:13.262Z,23.50
2022-10-21T01:34:13.211Z,22.70
2022-10-21T01:35:13.211Z,22.30
2022-10-21T01:36:13.196Z,24.60
2022-10-21T01:37:13.186Z,26.60
2022-10-21T01:38:13.201Z,24.30
2022-10-21T01:39:13.171Z,25.10
2022-10-21T01:40:13.176Z,23.70
2022-10-21T01:41:13.158Z,23.60
2022-10-21T01:42:13.157Z,24.40
2022-10-21T01:43:13.149Z,22.90
2022-10-21T01:44:13.139Z,22.30
2022-10-21T01:45:13.118Z,23.40
2022-10-21T01:46:13.108Z,24.00
2022-10-21T01:47:13.097Z,23.60
2022-10-21T01:48:13.074Z,25.70
2022-10-21T01:49:14.098Z,25.30
2022-10-21T01:50:13.063Z,24.30
2022-10-21T01:51:13.120Z,25.50
2022-10-21T01:52:13.049Z,23.10
2022-10-21T01:53:13.032Z,21.90
2022-10-21T01:54:13.049Z,22.90
2022-10-21T01:55:13.014Z,25.00
2022-10-21T01:56:13.016Z,23.40
2022-10-21T01:57:12.982Z,23.80
2022-10-21T01:58:13.976Z,24.80
2022-10-21T01:59:13.989Z,25.20
2022-10-21T02:00:13.030Z,26.40
2022-10-21T02:01:13.009Z,25.80
2022-10-21T02:02:12.957Z,27.70
2022-10-21T02:03:12.928Z,25.80
2022-10-21T02:04:12.949Z,23.30
2022-10-21T02:05:12.931Z,24.10
2022-10-21T02:06:12.914Z,23.50
2022-10-21T02:07:12.909Z,22.90
2022-10-21T02:08:12.887Z,24.00
2022-10-21T02:09:12.939Z,23.00
2022-10-21T02:10:12.977Z,22.80
2022-10-21T02:11:12.868Z,25.60
2022-10-21T02:12:12.844Z,23.40
2022-10-21T02:13:12.832Z,23.60
2022-10-21T02:14:12.837Z,24.00
2022-10-21T02:15:12.814Z,26.80
2022-10-21T02:16:12.830Z,27.20
2022-10-21T02:17:12.796Z,25.60
2022-10-21T02:18:12.782Z,25.50
2022-10-21T02:19:12.772Z,23.40
2022-10-21T02:20:12.765Z,28.30
2022-10-21T02:21:12.765Z,26.90
2022-10-21T02:22:12.742Z,25.10
2022-10-21T02:23:12.729Z,26.00
2022-10-21T02:24:12.726Z,24.90
2022-10-21T02:25:12.738Z,24.20
2022-10-21T02:26:12.699Z,25.30
2022-10-21T02:27:12.689Z,24.00
2022-10-21T02:28:12.740Z,24.10
2022-10-21T02:29:12.681Z,24.40
2022-10-21T02:30:12.684Z,24.40
2022-10-21T02:31:12.645Z,25.60
2022-10-21T02:32:12.672Z,24.90
2022-10-21T02:33:12.633Z,23.40
2022-10-21T02:34:12.620Z,23.60
2022-10-21T02:35:12.619Z,23.60
2022-10-21T02:36:12.626Z,23.80
2022-10-21T02:37:12.614Z,23.10
2022-10-21T02:38:12.586Z,22.70
2022-10-21T02:39:12.592Z,22.50
2022-10-21T02:40:12.576Z,21.40
2022-10-21T02:41:12.568Z,21.40
2022-10-21T02:42:12.546Z,20.40
2022-10-21T02:43:12.560Z,21.10
2022-10-21T02:44:12.534Z,21.50
2022-10-21T02:45:12.543Z,21.10
2022-10-21T02:46:12.517Z,32.00
2022-10-21T02:47:12.523Z,25.10
2022-10-21T02:48:12.512Z,21.90
2022-10-21T02:49:44.377Z,22.30
2022-10-21T02:50:12.488Z,25.30
2022-10-21T02:51:12.482Z,24.30
2022-10-21T02:52:12.463Z,23.10
2022-10-21T02:53:12.442Z,23.80
2022-10-21T02:54:12.433Z,22.80
2022-10-21T02:55:12.430Z,23.60
2022-10-21T02:56:12.424Z,24.70
2022-10-21T02:57:12.387Z,25.50
2022-10-21T02:58:12.388Z,25.50
2022-10-21T02:59:12.381Z,22.70
2022-10-21T03:00:12.372Z,23.60
2022-10-21T03:01:12.403Z,24.50
2022-10-21T03:02:12.347Z,22.40
2022-10-21T03:03:12.338Z,25.60
2022-10-21T03:04:12.335Z,25.00
2022-10-21T03:05:12.355Z,25.20
2022-10-21T03:06:12.307Z,23.80
2022-10-21T03:07:12.310Z,21.80
2022-10-21T03:08:12.295Z,24.20
2022-10-21T03:09:12.300Z,24.90
2022-10-21T03:10:12.292Z,24.10
2022-10-21T03:11:12.259Z,25.10
2022-10-21T03:12:12.252Z,21.80
2022-10-21T03:13:12.269Z,22.60
2022-10-21T03:14:12.232Z,20.30
2022-10-21T03:15:13.211Z,21.20
2022-10-21T03:16:12.269Z,21.30
2022-10-21T03:17:12.208Z,22.80
2022-10-21T03:18:12.215Z,23.70
2022-10-21T03:19:12.185Z,23.10
2022-10-21T03:20:12.181Z,24.50
2022-10-21T03:21:12.157Z,23.10
2022-10-21T03:22:12.162Z,22.80
2022-10-21T03:23:13.147Z,22.40
2022-10-21T03:24:19.806Z,22.80
2022-10-21T03:25:13.117Z,23.90
2022-10-21T03:26:12.107Z,22.50
2022-10-21T03:27:12.110Z,23.60
2022-10-21T03:28:12.092Z,23.20
2022-10-21T03:29:12.106Z,23.00
2022-10-21T03:30:12.072Z,22.50
2022-10-21T03:31:12.073Z,20.00
2022-10-21T03:32:12.050Z,21.50
2022-10-21T03:33:13.069Z,20.60
2022-10-21T03:34:12.044Z,21.20
2022-10-21T03:35:12.064Z,22.00
2022-10-21T03:36:12.018Z,21.50
2022-10-21T03:37:12.004Z,21.60
2022-10-21T03:38:12.011Z,22.20
2022-10-21T03:39:11.991Z,21.00
2022-10-21T03:40:12.505Z,19.60
2022-10-21T03:41:11.983Z,21.80
2022-10-21T03:42:11.952Z,21.60
2022-10-21T03:43:11.994Z,19.80
2022-10-21T03:44:11.956Z,19.30
2022-10-21T03:45:11.930Z,20.50
2022-10-21T03:46:11.923Z,21.30
2022-10-21T03:47:11.911Z,21.70
2022-10-21T03:48:11.933Z,22.50
2022-10-21T03:49:18.423Z,23.30
2022-10-21T03:50:15.100Z,22.80
2022-10-21T03:51:11.886Z,23.20
2022-10-21T03:52:11.886Z,23.40
2022-10-21T03:53:24.354Z,23.40
2022-10-21T03:54:12.885Z,23.50
2022-10-21T03:55:11.849Z,23.70
2022-10-21T03:56:11.830Z,25.50
2022-10-21T03:57:11.833Z,24.70
2022-10-21T03:58:11.851Z,24.40
2022-10-21T03:59:11.808Z,22.80
2022-10-21T04:01:11.863Z,23.50
2022-10-21T04:02:11.869Z,23.00
2022-10-21T04:03:11.757Z,23.80
2022-10-21T04:04:11.783Z,22.20
2022-10-21T04:05:11.752Z,21.20
2022-10-21T04:06:11.740Z,22.70
2022-10-21T04:07:11.731Z,23.30
2022-10-21T04:08:11.714Z,22.90
2022-10-21T04:09:11.776Z,23.10
2022-10-21T04:10:11.700Z,22.80
2022-10-21T04:11:11.689Z,21.90
2022-10-21T04:12:12.718Z,23.10
2022-10-21T04:13:11.675Z,23.60
2022-10-21T04:14:14.609Z,23.80
2022-10-21T04:15:11.673Z,21.60
2022-10-21T04:16:11.639Z,23.00
2022-10-21T04:17:11.622Z,23.80
2022-10-21T04:18:11.632Z,23.40
2022-10-21T04:19:11.607Z,24.10
2022-10-21T04:20:11.603Z,22.20
2022-10-21T04:21:11.646Z,21.50
2022-10-21T04:22:11.585Z,22.70
2022-10-21T04:23:11.591Z,22.40
2022-10-21T04:24:11.562Z,22.40
2022-10-21T04:25:11.547Z,23.80
2022-10-21T04:26:11.557Z,22.90
2022-10-21T04:27:11.527Z,22.80
2022-10-21T04:28:11.527Z,23.70
2022-10-21T04:29:11.526Z,23.80
2022-10-21T04:30:11.521Z,22.20
2022-10-21T04:31:11.527Z,23.30
2022-10-21T04:32:11.496Z,23.60
2022-10-21T04:33:11.478Z,23.20
2022-10-21T04:34:11.461Z,22.80
2022-10-21T04:35:12.481Z,23.90
2022-10-21T04:36:11.452Z,23.70
2022-10-21T04:37:11.441Z,23.60
2022-10-21T04:38:11.435Z,22.60
2022-10-21T04:39:11.444Z,24.10
2022-10-21T04:40:11.419Z,23.80
2022-10-21T04:41:11.409Z,24.00
2022-10-21T04:42:11.383Z,24.20
2022-10-21T04:43:11.376Z,22.40
2022-10-21T04:44:11.388Z,22.00
2022-10-21T04:45:11.384Z,23.60
2022-10-21T04:46:12.124Z,25.80
2022-10-21T04:47:12.348Z,23.00
2022-10-21T04:48:11.338Z,22.70
2022-10-21T04:49:11.304Z,23.20
2022-10-21T04:50:11.318Z,23.50
2022-10-21T04:51:11.298Z,23.90
2022-10-21T04:52:11.287Z,24.20
2022-10-21T04:53:11.274Z,21.10
2022-10-21T04:54:11.267Z,21.20
2022-10-21T04:55:11.291Z,23.70
2022-10-21T04:56:11.249Z,21.90
2022-10-21T04:57:11.238Z,21.70
2022-10-21T04:58:11.227Z,22.70
2022-10-21T04:59:11.230Z,19.90
2022-10-21T05:00:11.236Z,23.10
2022-10-21T05:01:11.240Z,24.10
2022-10-21T05:02:11.192Z,25.60
2022-10-21T05:03:11.205Z,24.80
2022-10-21T05:04:11.167Z,25.00
2022-10-21T05:05:11.176Z,24.80
2022-10-21T05:06:11.151Z,26.60
2022-10-21T05:07:11.145Z,24.00
2022-10-21T05:08:11.774Z,26.90
2022-10-21T05:09:11.241Z,24.90
2022-10-21T05:10:11.140Z,25.30
2022-10-21T05:11:11.107Z,24.90
2022-10-21T05:12:11.091Z,25.40
2022-10-21T05:13:11.076Z,26.70
2022-10-21T05:14:11.071Z,23.80
2022-10-21T05:15:11.087Z,26.90
2022-10-21T05:16:11.050Z,27.20
2022-10-21T05:17:17.615Z,27.50
2022-10-21T05:18:11.044Z,28.40
2022-10-21T05:19:11.018Z,26.80
2022-10-21T05:20:11.008Z,27.70
2022-10-21T05:21:11.025Z,27.70
2022-10-21T05:22:10.988Z,28.30
2022-10-21T05:23:10.981Z,29.10
2022-10-21T05:24:10.982Z,27.00
2022-10-21T05:25:10.956Z,27.30
2022-10-21T05:26:11.007Z,28.30
2022-10-21T05:27:10.940Z,33.10
2022-10-21T05:28:10.932Z,24.60
2022-10-21T05:29:10.914Z,26.40
2022-10-21T05:30:10.913Z,24.70
2022-10-21T05:31:10.913Z,26.00
2022-10-21T05:32:10.923Z,27.90
2022-10-21T05:33:10.893Z,27.20
2022-10-21T05:34:10.877Z,28.40
2022-10-21T05:35:10.873Z,28.60
2022-10-21T05:36:10.865Z,30.00
2022-10-21T05:37:10.867Z,30.20
2022-10-21T05:38:10.871Z,26.10
2022-10-21T05:39:10.860Z,26.30
2022-10-21T05:40:10.819Z,28.30
2022-10-21T05:41:10.838Z,29.60
2022-10-21T05:42:10.799Z,28.00
2022-10-21T05:43:10.794Z,28.90
2022-10-21T05:44:10.774Z,30.80
2022-10-21T05:45:10.778Z,29.30
2022-10-21T05:46:10.829Z,27.10
2022-10-21T05:47:10.759Z,26.10
2022-10-21T05:48:13.488Z,27.40
2022-10-21T05:49:11.731Z,24.30
2022-10-21T05:50:10.719Z,23.40
2022-10-21T05:51:10.707Z,26.10
2022-10-21T05:52:10.732Z,27.30
2022-10-21T05:53:10.685Z,25.70
2022-10-21T05:54:10.684Z,27.40
2022-10-21T05:55:10.664Z,29.20
2022-10-21T05:56:10.662Z,37.10
2022-10-21T05:57:10.677Z,33.30
2022-10-21T05:58:10.646Z,27.60
2022-10-21T05:59:10.646Z,26.00
2022-10-21T06:00:10.622Z,26.80
2022-10-21T06:01:10.647Z,23.80
2022-10-21T06:02:10.598Z,26.30
2022-10-21T06:03:10.596Z,25.10
2022-10-21T06:04:10.592Z,27.90
2022-10-21T06:05:10.585Z,28.10
2022-10-21T06:06:10.557Z,28.70
2022-10-21T06:07:10.543Z,28.40
2022-10-21T06:08:10.554Z,26.50
2022-10-21T06:09:10.690Z,24.10
2022-10-21T06:10:10.531Z,26.70
2022-10-21T06:11:10.515Z,30.50
2022-10-21T06:12:10.503Z,30.50
2022-10-21T06:13:10.496Z,29.20
2022-10-21T06:14:10.522Z,25.30
2022-10-21T06:15:10.485Z,24.70
2022-10-21T06:16:10.466Z,26.60
2022-10-21T06:17:10.457Z,26.60
2022-10-21T06:18:10.455Z,26.00
2022-10-21T06:19:10.445Z,23.60
2022-10-21T06:20:10.458Z,23.70
2022-10-21T06:21:10.461Z,24.60
2022-10-21T06:22:10.414Z,24.80
2022-10-21T06:23:10.432Z,24.00
2022-10-21T06:24:10.391Z,24.20
2022-10-21T06:25:10.453Z,25.10
2022-10-21T06:26:10.383Z,24.60
2022-10-21T06:27:10.363Z,23.90
2022-10-21T06:28:10.363Z,23.70
2022-10-21T06:29:10.347Z,24.70
2022-10-21T06:30:10.361Z,23.60
2022-10-21T06:31:10.334Z,22.90
2022-10-21T06:32:10.320Z,24.10
2022-10-21T06:33:10.322Z,21.70
2022-10-21T06:34:10.306Z,23.80
2022-10-21T06:35:10.319Z,21.20
2022-10-21T06:36:10.285Z,22.70
2022-10-21T06:37:10.300Z,22.50
2022-10-21T06:38:10.273Z,22.70
2022-10-21T06:39:10.272Z,22.30
2022-10-21T06:40:10.248Z,21.40
2022-10-21T06:41:13.050Z,22.80
2022-10-21T06:42:10.277Z,22.70
2022-10-21T06:43:10.266Z,24.00
2022-10-21T06:44:10.199Z,20.30
2022-10-21T06:45:10.197Z,19.70
2022-10-21T06:46:10.224Z,22.00
2022-10-21T06:47:10.180Z,20.90
2022-10-21T06:48:10.166Z,21.90
2022-10-21T06:49:10.155Z,24.90
2022-10-21T06:50:10.152Z,21.90
2022-10-21T06:51:10.209Z,20.10
2022-10-21T06:52:10.123Z,21.80
2022-10-21T06:53:10.145Z,23.10
2022-10-21T06:54:10.114Z,22.30
2022-10-21T06:55:10.101Z,22.60
2022-10-21T06:56:10.089Z,22.00
2022-10-21T06:57:10.101Z,22.50
2022-10-21T06:58:10.069Z,22.20
2022-10-21T06:59:10.056Z,21.80
2022-10-21T07:00:10.058Z,22.50
2022-10-21T07:01:21.292Z,21.90
2022-10-21T07:02:11.059Z,22.00
2022-10-21T07:03:10.017Z,22.20
2022-10-21T07:04:10.004Z,22.30
2022-10-21T07:05:10.002Z,21.40
2022-10-21T07:06:10.014Z,21.30
2022-10-21T07:07:09.980Z,20.50
2022-10-21T07:08:12.095Z,19.60
2022-10-21T07:09:10.045Z,20.40
2022-10-21T07:10:09.974Z,22.00
2022-10-21T07:11:09.933Z,21.60
2022-10-21T07:12:10.003Z,20.90
2022-10-21T07:13:09.916Z,20.60
2022-10-21T07:14:09.910Z,20.50
2022-10-21T07:15:09.902Z,19.80
2022-10-21T07:16:09.890Z,19.70
2022-10-21T07:17:09.901Z,20.10
2022-10-21T07:18:09.896Z,19.40
2022-10-21T07:19:09.860Z,19.60
2022-10-21T07:20:09.857Z,19.90
2022-10-21T07:21:09.853Z,21.90
2022-10-21T07:22:09.869Z,20.00
2022-10-21T07:23:09.830Z,21.70
2022-10-21T07:24:09.837Z,21.10
2022-10-21T07:25:09.819Z,21.50
2022-10-21T07:26:09.799Z,20.60
2022-10-21T07:27:09.824Z,18.90
2022-10-21T07:28:09.792Z,17.50
2022-10-21T07:29:09.780Z,18.30
2022-10-21T07:30:09.773Z,19.80
2022-10-21T07:31:09.755Z,19.90
2022-10-21T07:32:09.840Z,21.40
2022-10-21T07:33:09.770Z,19.50
2022-10-21T07:34:09.745Z,19.70
2022-10-21T07:35:09.713Z,18.40
2022-10-21T07:36:09.700Z,18.00
2022-10-21T07:37:09.685Z,17.90
2022-10-21T07:38:09.666Z,19.10
2022-10-21T07:39:09.771Z,18.30
2022-10-21T07:40:09.650Z,18.20
2022-10-21T07:41:09.650Z,18.80
2022-10-21T07:42:09.676Z,19.20
2022-10-21T07:43:09.650Z,19.70
2022-10-21T07:44:09.624Z,19.90
2022-10-21T07:45:09.606Z,20.00
2022-10-21T07:46:09.643Z,20.60
2022-10-21T07:47:09.601Z,19.60
2022-10-21T07:48:09.584Z,20.30
2022-10-21T07:49:09.564Z,20.20
2022-10-21T07:50:09.559Z,17.50
2022-10-21T07:51:09.569Z,17.90
2022-10-21T07:52:09.578Z,16.30
2022-10-21T07:53:12.636Z,16.40
2022-10-21T07:54:10.580Z,16.80
2022-10-21T07:55:09.519Z,16.40
2022-10-21T07:56:09.507Z,17.10
2022-10-21T07:57:09.490Z,16.30
2022-10-21T07:58:09.473Z,16.20
2022-10-21T07:59:12.895Z,16.10
2022-10-21T08:00:10.471Z,17.60
2022-10-21T08:01:09.498Z,16.60
2022-10-21T08:02:09.448Z,16.90
2022-10-21T08:03:09.427Z,16.70
2022-10-21T08:04:09.415Z,17.10
2022-10-21T08:05:09.424Z,15.40
2022-10-21T08:06:09.398Z,17.10
2022-10-21T08:07:11.723Z,16.30
2022-10-21T08:08:09.375Z,17.00
2022-10-21T08:09:09.406Z,16.90
2022-10-21T08:10:09.385Z,17.10
2022-10-21T08:11:09.348Z,16.30
2022-10-21T08:12:11.632Z,18.10
2022-10-21T08:13:10.347Z,19.10
2022-10-21T08:14:09.318Z,17.70
2022-10-21T08:15:09.300Z,17.60
2022-10-21T08:16:09.331Z,16.10
2022-10-21T08:17:09.285Z,16.90
2022-10-21T08:18:09.275Z,16.60
2022-10-21T08:19:09.272Z,16.30
2022-10-21T08:20:09.254Z,16.40
2022-10-21T08:21:09.266Z,16.20
2022-10-21T08:22:09.269Z,15.90
2022-10-21T08:23:09.229Z,15.40
2022-10-21T08:24:09.228Z,16.20
2022-10-21T08:25:09.220Z,16.10
2022-10-21T08:26:09.194Z,16.90
2022-10-21T08:27:09.206Z,17.10
2022-10-21T08:28:09.177Z,16.30
2022-10-21T08:29:09.187Z,17.20
2022-10-21T08:30:09.163Z,18.00
2022-10-21T08:31:09.152Z,16.90
2022-10-21T08:32:09.139Z,16.70
2022-10-21T08:33:09.148Z,16.00
2022-10-21T08:34:09.132Z,16.10
2022-10-21T08:35:09.111Z,16.30
2022-10-21T08:36:09.114Z,17.00
2022-10-21T08:37:09.087Z,16.60
2022-10-21T08:38:09.136Z,15.90
2022-10-21T08:39:09.084Z,16.20
2022-10-21T08:40:09.107Z,16.30
2022-10-21T08:41:09.038Z,14.90
2022-10-21T08:42:09.037Z,14.80
2022-10-21T08:43:09.043Z,15.20
2022-10-21T08:44:09.017Z,15.00
2022-10-21T08:45:09.012Z,15.00
2022-10-21T08:46:09.002Z,14.80
2022-10-21T08:48:09.003Z,15.50
2022-10-21T08:49:08.969Z,16.00
2022-10-21T08:50:40.860Z,16.20
2022-10-21T08:51:08.946Z,16.40
2022-10-21T08:52:08.952Z,16.40
2022-10-21T08:53:08.946Z,16.30
2022-10-21T08:54:08.915Z,15.00
2022-10-21T08:55:08.926Z,15.70
2022-10-21T08:56:08.913Z,15.60
2022-10-21T08:57:08.875Z,15.30
2022-10-21T08:58:12.604Z,16.50
2022-10-21T08:59:10.862Z,16.10
2022-10-21T09:00:08.871Z,16.70
2022-10-21T09:01:08.848Z,16.30
2022-10-21T09:02:08.832Z,16.30
2022-10-21T09:03:08.931Z,16.50
2022-10-21T09:04:08.809Z,16.30
2022-10-21T09:05:08.805Z,15.70
2022-10-21T09:06:08.794Z,14.20
2022-10-21T09:07:08.793Z,15.10
2022-10-21T09:08:08.801Z,14.80
2022-10-21T09:09:08.833Z,14.50
2022-10-21T09:10:08.746Z,15.30
2022-10-21T09:11:08.742Z,15.60
2022-10-21T09:12:08.755Z,16.20
2022-10-21T09:13:08.729Z,16.10
2022-10-21T09:14:08.703Z,16.10
2022-10-21T09:15:11.230Z,16.10
2022-10-21T09:16:09.697Z,14.70
2022-10-21T09:17:08.671Z,14.90
2022-10-21T09:18:08.674Z,15.80
2022-10-21T09:19:08.739Z,14.40
2022-10-21T09:20:08.649Z,14.60
2022-10-21T09:21:08.675Z,14.70
2022-10-21T09:22:33.335Z,14.90
2022-10-21T09:23:10.628Z,15.60
2022-10-21T09:24:08.604Z,15.20
2022-10-21T09:25:08.605Z,15.60
2022-10-21T09:26:08.640Z,15.70
2022-10-21T09:27:08.579Z,17.50
2022-10-21T09:28:08.582Z,16.40
2022-10-21T09:29:08.562Z,17.20
2022-10-21T09:30:08.557Z,17.70
2022-10-21T09:31:08.557Z,18.90
2022-10-21T09:32:08.570Z,19.10
2022-10-21T09:33:08.533Z,18.90
2022-10-21T09:34:08.519Z,20.80
2022-10-21T09:35:08.505Z,19.30
2022-10-21T09:36:08.496Z,19.30
2022-10-21T09:37:08.512Z,17.70
2022-10-21T09:38:08.473Z,17.30
2022-10-21T09:39:08.455Z,18.30
2022-10-21T09:40:08.481Z,17.20
2022-10-21T09:41:08.445Z,17.70
2022-10-21T09:42:12.448Z,17.70
2022-10-21T09:43:10.420Z,17.20
2022-10-21T09:44:08.412Z,17.50
2022-10-21T09:45:08.440Z,16.90
2022-10-21T09:46:08.414Z,16.60
2022-10-21T09:47:08.391Z,15.60
2022-10-21T09:48:08.370Z,16.90
2022-10-21T09:49:47.227Z,17.20
2022-10-21T09:50:10.344Z,16.90
2022-10-21T09:51:08.346Z,16.10
2022-10-21T09:52:08.329Z,16.60
2022-10-21T09:53:08.304Z,16.60
2022-10-21T09:54:08.317Z,17.70
2022-10-21T09:55:08.305Z,16.70
2022-10-21T09:56:08.302Z,16.20
2022-10-21T09:57:08.317Z,17.00
2022-10-21T09:58:08.297Z,17.30
2022-10-21T09:59:08.258Z,16.90
2022-10-21T10:00:11.180Z,17.90
2022-10-21T10:01:09.236Z,17.40
2022-10-21T10:02:08.300Z,18.20
2022-10-21T10:03:08.233Z,17.80
2022-10-21T10:04:08.199Z,18.80
2022-10-21T10:05:08.212Z,18.10
2022-10-21T10:06:08.212Z,18.80
2022-10-21T10:07:08.192Z,20.10
2022-10-21T10:08:08.169Z,18.70
2022-10-21T10:09:08.201Z,18.80
2022-10-21T10:10:08.159Z,19.30
2022-10-21T10:11:08.136Z,18.40
2022-10-21T10:12:08.129Z,16.80
2022-10-21T10:13:08.137Z,16.80
2022-10-21T10:14:08.127Z,15.70
2022-10-21T10:15:08.110Z,17.10
2022-10-21T10:16:08.084Z,17.30
2022-10-21T10:17:08.078Z,17.10
2022-10-21T10:18:08.071Z,18.90
2022-10-21T10:19:08.064Z,17.80
2022-10-21T10:20:08.027Z,19.10
2022-10-21T10:21:09.025Z,17.70
2022-10-21T10:22:10.311Z,19.40
2022-10-21T10:23:09.018Z,19.10
2022-10-21T10:24:08.003Z,19.50
2022-10-21T10:25:08.002Z,17.50
2022-10-21T10:26:07.973Z,17.30
2022-10-21T10:27:07.985Z,18.60
2022-10-21T10:28:07.957Z,18.30
2022-10-21T10:29:07.971Z,17.10
2022-10-21T10:30:07.940Z,17.30
2022-10-21T10:31:07.932Z,18.50
2022-10-21T10:32:07.918Z,18.90
2022-10-21T10:33:07.939Z,18.70
2022-10-21T10:34:07.889Z,17.70
2022-10-21T10:35:07.890Z,17.40
2022-10-21T10:36:09.604Z,18.70
2022-10-21T10:37:08.858Z,20.20
2022-10-21T10:38:07.882Z,18.10
2022-10-21T10:39:07.852Z,17.20
2022-10-21T10:40:07.845Z,17.20
2022-10-21T10:41:07.812Z,17.30
2022-10-21T10:42:07.883Z,17.70
2022-10-21T10:43:07.799Z,17.50
2022-10-21T10:44:07.822Z,16.80
2022-10-21T10:45:07.785Z,17.30
2022-10-21T10:46:07.779Z,20.70
2022-10-21T10:47:07.778Z,19.90
2022-10-21T10:48:07.756Z,21.10
2022-10-21T10:49:07.771Z,21.40
2022-10-21T10:50:07.743Z,20.30
2022-10-21T10:51:07.728Z,21.10
2022-10-21T10:52:07.722Z,23.30
2022-10-21T10:53:07.720Z,22.20
2022-10-21T10:54:07.735Z,22.30
2022-10-21T10:55:07.691Z,21.40
2022-10-21T10:56:07.689Z,18.30
2022-10-21T10:57:07.720Z,18.00
2022-10-21T10:58:12.530Z,19.10
2022-10-21T10:59:09.669Z,19.00
2022-10-21T11:00:07.646Z,20.00
2022-10-21T11:01:07.681Z,19.90
2022-10-21T11:02:07.648Z,17.50
2022-10-21T11:03:07.612Z,20.60
2022-10-21T11:04:07.615Z,19.40
2022-10-21T11:05:07.614Z,18.30
2022-10-21T11:06:07.596Z,17.50
2022-10-21T11:07:07.569Z,18.70
2022-10-21T11:08:07.632Z,18.60
2022-10-21T11:09:07.654Z,19.30
2022-10-21T11:10:07.569Z,17.60
2022-10-21T11:11:07.528Z,19.70
2022-10-21T11:12:07.527Z,19.00
2022-10-21T11:13:07.515Z,18.80
2022-10-21T11:14:07.605Z,19.20
2022-10-21T11:15:07.563Z,19.80
2022-10-21T11:16:07.489Z,19.70
2022-10-21T11:17:07.459Z,19.50
2022-10-21T11:18:23.060Z,19.40
2022-10-21T11:19:09.484Z,19.70
2022-10-21T11:20:07.455Z,21.10
2022-10-21T11:21:07.425Z,20.80
2022-10-21T11:22:07.410Z,21.00
2022-10-21T11:24:07.406Z,21.40
2022-10-21T11:25:07.392Z,21.40
2022-10-21T11:26:07.397Z,21.00
2022-10-21T11:27:07.373Z,20.80
2022-10-21T11:28:07.369Z,21.00
2022-10-21T11:29:07.363Z,21.10
2022-10-21T11:30:07.437Z,22.30
2022-10-21T11:31:07.360Z,20.80
2022-10-21T11:32:11.462Z,19.50
2022-10-21T11:33:07.303Z,19.70
2022-10-21T11:34:11.449Z,20.60
2022-10-21T11:35:09.296Z,20.10
2022-10-21T11:36:07.346Z,20.10
2022-10-21T11:37:07.281Z,20.30
2022-10-21T11:38:07.271Z,21.20
2022-10-21T11:39:07.259Z,21.10
2022-10-21T11:40:07.245Z,22.10
2022-10-21T11:41:07.261Z,18.60
2022-10-21T11:42:07.250Z,19.40
2022-10-21T11:43:07.211Z,19.50
2022-10-21T11:44:07.226Z,18.20
2022-10-21T11:45:07.198Z,19.30
2022-10-21T11:46:07.265Z,18.20
2022-10-21T11:47:07.180Z,20.10
2022-10-21T11:48:07.160Z,18.70
2022-10-21T11:49:07.183Z,19.60
2022-10-21T11:50:07.248Z,19.20
2022-10-21T11:51:07.130Z,20.60
2022-10-21T11:52:07.130Z,20.30
2022-10-21T11:53:07.116Z,20.90
2022-10-21T11:54:07.122Z,22.20
2022-10-21T11:55:10.390Z,22.20
2022-10-21T11:56:08.088Z,20.70
2022-10-21T11:57:07.073Z,19.60
2022-10-21T11:58:07.075Z,19.70
2022-10-21T11:59:07.084Z,18.10
2022-10-21T12:00:07.056Z,18.60
2022-10-21T12:01:07.058Z,19.80
2022-10-21T12:02:07.200Z,18.30
2022-10-21T12:03:07.024Z,17.10
2022-10-21T12:04:07.017Z,17.30
2022-10-21T12:05:07.040Z,17.20
2022-10-21T12:06:07.009Z,15.90
2022-10-21T12:07:11.071Z,15.60
2022-10-21T12:08:07.983Z,16.20
2022-10-21T12:09:07.003Z,16.20
2022-10-21T12:10:07.011Z,16.40
2022-10-21T12:11:06.946Z,16.70
2022-10-21T12:12:06.942Z,15.50
2022-10-21T12:13:06.934Z,17.00
2022-10-21T12:14:06.950Z,18.60
2022-10-21T12:15:06.915Z,19.40
2022-10-21T12:16:06.896Z,19.70
2022-10-21T12:17:06.904Z,20.10
2022-10-21T12:18:06.969Z,18.50
2022-10-21T12:19:06.898Z,19.70
2022-10-21T12:20:06.915Z,18.80
2022-10-21T12:21:06.849Z,15.90
2022-10-21T12:22:06.840Z,15.40
2022-10-21T12:23:06.850Z,13.70
2022-10-21T12:24:06.841Z,13.40
2022-10-21T12:25:06.855Z,20.30
2022-10-21T12:26:06.813Z,19.50
2022-10-21T12:27:06.791Z,16.30
2022-10-21T12:28:06.801Z,14.70
2022-10-21T12:29:06.766Z,14.40
2022-10-21T12:30:06.888Z,12.40
2022-10-21T12:31:06.769Z,13.20
2022-10-21T12:32:06.744Z,16.60
2022-10-21T12:33:06.720Z,20.60
2022-10-21T12:34:06.785Z,15.00
2022-10-21T12:35:06.706Z,15.90
2022-10-21T12:36:06.714Z,14.30
2022-10-21T12:37:06.700Z,15.70
2022-10-21T12:38:06.692Z,12.50
2022-10-21T12:39:06.662Z,11.50
2022-10-21T12:40:07.663Z,13.10
2022-10-21T12:41:06.643Z,11.90
2022-10-21T12:42:06.623Z,12.70
2022-10-21T12:43:06.661Z,12.00
2022-10-21T12:44:06.623Z,13.90
2022-10-21T12:45:06.622Z,12.40
2022-10-21T12:46:06.604Z,15.10
2022-10-21T12:47:06.602Z,13.70
2022-10-21T12:48:06.599Z,12.50
2022-10-21T12:49:06.573Z,12.70
2022-10-21T12:50:06.683Z,15.00
2022-10-21T12:51:06.548Z,15.70
2022-10-21T12:52:06.537Z,16.40
2022-10-21T12:53:06.560Z,15.60
2022-10-21T12:54:06.513Z,14.70
2022-10-21T12:55:06.535Z,15.30